Airfield :







YOU CAN JOIN US ON...

 
LOGIN :

Register | Disclaimer

   EN    FR    IT 

 









Legend :    VFR   Marginal VFR   IFR   Intensive IFR   Very Intensive IFR
Visi :
Ceiling :
>= 8 km
>= 3000ft
5 to 8 km
1000 to 3000 ft
1500m to 5 km
500 to 1000 ft
800 to 1500m
200 to 500 ft
< 800m
< 200 ft
Symbols :   Thunderstorms  Fog  Heavy snow  Heavy precipitations  Wind > 20 kt






- Airport Elevation : 1074 ft


KHIE - Mount Washington Regional

CURRENT METAR :
  • 261910Z AUTO 23006KT 10SM FEW007 SCT011 OVC050 02/01 A2956 RMK AO2 SNE1856 P0002 T00170006

EXPIRED METARs :
  • 261852Z AUTO VRB04KT 3SM -SN BR OVC009 01/00 A2956 RMK AO2 RAE27SNB27 SLP021 P0003 T00110000
  • 261842Z AUTO 28006KT 1SM -SN BR BKN009 BKN015 OVC021 01/M01 A2956 RMK AO2 RAE27SNB27 P0003 T00061006
  • 261834Z AUTO 28006KT 1 3/4SM -SN BR SCT009 BKN014 OVC021 01/M01 A2956 RMK AO2 RAE27SNB27 P0002 T00111006
  • 261810Z AUTO VRB03KT 10SM -RA FEW009 BKN020 OVC046 02/01 A2957 RMK AO2 P0000 T00220011
  • 261802Z AUTO 00000KT 10SM -RA SCT014 BKN020 OVC044 02/01 A2957 RMK AO2 P0000 T00170006
  • 261742Z AUTO 22003KT 6SM BR BKN014 BKN024 OVC034 02/01 A2957 RMK AO2 RAB04E29 P0001 T00170006

TAF KHIE
Valid from the 26 at 18:00 until the 27 at 18:00 UTC


261720Z 2618/2718 VRB03KT P6SM VCSH FEW015 OVC025
TEMPO 2619/2623 3SM -SHSN OVC025
FM262300 VRB02KT P6SM OVC025



MET'MAP, your aeronautical weather chart ! - Copyright ORBIFLY December 2007 - Disclaimer

ORBIFLY MET'MAP TEAM :

Programming & Development : Alexandra Zaïnal
Concept & original design : Baudouin d'Aumeries
Assistance for programming : Marc-Olivier Méhu
Technical & hardware support : Manuel Goepfert

Contact : metmap@orbifly.com




SOURCES & CREDITS :

   NOAA